ARG1842 SAWC-SAWH
Flight info
| Callsign | ARG1842 |
|---|---|
| Flight time | 1h 3m |
| Altitude | 39000 |
| Route | DEVIS1C DEVIS UW52 GAL UW42 GRA DCT DABLI DABLI2 |
| Aircraft | B38M/M-SDE1FGHILORVWXY/HB1 |
Departure
| Time | 2026-04-26 18:56 |
|---|---|
| Airport | El Calafate - Commander Armando Tola International Airport (SAWC) |
Arrival
| Time | 2026-04-26 19:59 |
|---|---|
| Airport | Ushuaia - Malvinas Argentinas International Airport (SAWH) |
| Time | Latitude | Longitude | Altitude | Speed | Heading |
|---|---|---|---|---|---|
| 2026-04-26 18:05 | -50.28325 | -72.05314 | 643 ft | 0 kts | 232° |
| 2026-04-26 18:46 | -50.28320 | -72.05299 | 643 ft | 4 kts | 261° |
| 2026-04-26 18:46 | -50.28318 | -72.05298 | 643 ft | 4 kts | 255° |
| 2026-04-26 18:47 | -50.28307 | -72.05266 | 647 ft | 4 kts | 207° |
| 2026-04-26 18:47 | -50.28287 | -72.05269 | 645 ft | 4 kts | 147° |
| 2026-04-26 18:47 | -50.28265 | -72.05288 | 645 ft | 4 kts | 172° |
| 2026-04-26 18:47 | -50.28255 | -72.05287 | 645 ft | 0 kts | 231° |
| 2026-04-26 18:50 | -50.28255 | -72.05288 | 645 ft | 0 kts | 237° |
| 2026-04-26 18:50 | -50.28256 | -72.05297 | 646 ft | 1 kts | 262° |
| 2026-04-26 18:50 | -50.28257 | -72.05325 | 643 ft | 4 kts | 267° |
| 2026-04-26 18:50 | -50.28247 | -72.05373 | 643 ft | 6 kts | 307° |
| 2026-04-26 18:51 | -50.28207 | -72.05401 | 644 ft | 7 kts | 351° |
| 2026-04-26 18:51 | -50.28150 | -72.05409 | 644 ft | 9 kts | 356° |
| 2026-04-26 18:51 | -50.28109 | -72.05414 | 644 ft | 0 kts | 356° |
| 2026-04-26 18:52 | -50.28108 | -72.05414 | 644 ft | 1 kts | 356° |
| 2026-04-26 18:52 | -50.28068 | -72.05417 | 646 ft | 12 kts | 1° |
| 2026-04-26 18:53 | -50.28014 | -72.05270 | 645 ft | 21 kts | 87° |
| 2026-04-26 18:53 | -50.28002 | -72.05018 | 646 ft | 24 kts | 83° |
| 2026-04-26 18:53 | -50.27986 | -72.04754 | 647 ft | 25 kts | 85° |
| 2026-04-26 18:53 | -50.27969 | -72.04468 | 646 ft | 27 kts | 83° |
| 2026-04-26 18:54 | -50.27951 | -72.04158 | 644 ft | 30 kts | 85° |
| 2026-04-26 18:54 | -50.27931 | -72.03832 | 642 ft | 20 kts | 84° |
| 2026-04-26 18:54 | -50.27966 | -72.03630 | 644 ft | 18 kts | 92° |
| 2026-04-26 18:54 | -50.27930 | -72.03550 | 645 ft | 5 kts | 359° |
| 2026-04-26 18:55 | -50.27921 | -72.03559 | 645 ft | 0 kts | 301° |
| 2026-04-26 18:55 | -50.27916 | -72.03608 | 644 ft | 10 kts | 265° |
| 2026-04-26 18:55 | -50.27918 | -72.03633 | 644 ft | 3 kts | 263° |
| 2026-04-26 18:55 | -50.27926 | -72.03755 | 643 ft | 30 kts | 265° |
| 2026-04-26 18:56 | -50.27973 | -72.04549 | 646 ft | 113 kts | 264° |
| 2026-04-26 18:56 | -50.28062 | -72.06127 | 742 ft | 169 kts | 265° |
| 2026-04-26 18:56 | -50.28173 | -72.08055 | 1587 ft | 182 kts | 266° |
| 2026-04-26 18:56 | -50.28292 | -72.10091 | 2606 ft | 194 kts | 266° |
| 2026-04-26 18:57 | -50.28437 | -72.12294 | 3389 ft | 214 kts | 268° |
| 2026-04-26 18:57 | -50.28484 | -72.13091 | 3621 ft | 222 kts | 268° |
| 2026-04-26 18:57 | -50.28721 | -72.17211 | 5502 ft | 226 kts | 267° |
| 2026-04-26 18:57 | -50.28862 | -72.19681 | 6647 ft | 230 kts | 267° |
| 2026-04-26 18:58 | -50.29009 | -72.22180 | 7708 ft | 231 kts | 267° |
| 2026-04-26 18:58 | -50.29156 | -72.24704 | 8772 ft | 234 kts | 268° |
| 2026-04-26 18:58 | -50.29303 | -72.27222 | 9897 ft | 234 kts | 268° |
| 2026-04-26 18:58 | -50.29402 | -72.28916 | 10451 ft | 239 kts | 268° |
| 2026-04-26 18:59 | -50.29605 | -72.32410 | 10954 ft | 245 kts | 268° |
| 2026-04-26 18:59 | -50.29759 | -72.35062 | 11007 ft | 244 kts | 268° |
| 2026-04-26 18:59 | -50.29924 | -72.37704 | 10992 ft | 245 kts | 264° |
| 2026-04-26 18:59 | -50.30563 | -72.40192 | 10998 ft | 253 kts | 240° |
| 2026-04-26 19:00 | -50.31850 | -72.42131 | 11116 ft | 265 kts | 220° |
| 2026-04-26 19:00 | -50.32903 | -72.43189 | 11593 ft | 266 kts | 219° |
| 2026-04-26 19:00 | -50.35007 | -72.45244 | 12755 ft | 273 kts | 218° |
| 2026-04-26 19:00 | -50.36155 | -72.46189 | 13327 ft | 282 kts | 206° |
| 2026-04-26 19:01 | -50.38110 | -72.46686 | 14129 ft | 297 kts | 181° |
| 2026-04-26 19:01 | -50.40133 | -72.45857 | 14920 ft | 308 kts | 156° |
| 2026-04-26 19:01 | -50.41841 | -72.43762 | 15674 ft | 319 kts | 132° |
| 2026-04-26 19:01 | -50.42917 | -72.40700 | 16401 ft | 326 kts | 109° |
| 2026-04-26 19:02 | -50.43637 | -72.37299 | 17075 ft | 332 kts | 110° |
| 2026-04-26 19:02 | -50.44402 | -72.33837 | 17750 ft | 337 kts | 111° |
| 2026-04-26 19:02 | -50.45171 | -72.30325 | 18414 ft | 342 kts | 111° |
| 2026-04-26 19:02 | -50.45683 | -72.27974 | 18801 ft | 345 kts | 111° |
| 2026-04-26 19:03 | -50.46710 | -72.23236 | 19629 ft | 347 kts | 111° |
| 2026-04-26 19:03 | -50.47491 | -72.19624 | 20230 ft | 350 kts | 111° |
| 2026-04-26 19:03 | -50.48275 | -72.15990 | 20884 ft | 352 kts | 111° |
| 2026-04-26 19:03 | -50.49064 | -72.12330 | 21481 ft | 355 kts | 111° |
| 2026-04-26 19:04 | -50.49856 | -72.08648 | 22104 ft | 356 kts | 112° |
| 2026-04-26 19:04 | -50.50646 | -72.04968 | 22770 ft | 355 kts | 112° |
| 2026-04-26 19:04 | -50.51439 | -72.01268 | 23327 ft | 358 kts | 112° |
| 2026-04-26 19:04 | -50.52236 | -71.97542 | 23831 ft | 361 kts | 112° |
| 2026-04-26 19:05 | -50.53830 | -71.90069 | 24709 ft | 366 kts | 112° |
| 2026-04-26 19:05 | -50.54639 | -71.86263 | 25128 ft | 368 kts | 112° |
| 2026-04-26 19:05 | -50.55453 | -71.82431 | 25546 ft | 370 kts | 111° |
| 2026-04-26 19:06 | -50.56322 | -71.78601 | 25930 ft | 371 kts | 119° |
| 2026-04-26 19:06 | -50.57734 | -71.75293 | 26339 ft | 363 kts | 136° |
| 2026-04-26 19:06 | -50.59374 | -71.72240 | 26699 ft | 367 kts | 135° |
| 2026-04-26 19:06 | -50.61040 | -71.69172 | 27107 ft | 369 kts | 136° |
| 2026-04-26 19:07 | -50.62727 | -71.66108 | 27489 ft | 371 kts | 136° |
| 2026-04-26 19:07 | -50.64434 | -71.63033 | 27866 ft | 373 kts | 136° |
| 2026-04-26 19:07 | -50.66151 | -71.59953 | 28233 ft | 375 kts | 136° |
| 2026-04-26 19:07 | -50.67881 | -71.56854 | 28611 ft | 378 kts | 136° |
| 2026-04-26 19:08 | -50.69622 | -71.53734 | 28965 ft | 380 kts | 136° |
| 2026-04-26 19:08 | -50.71372 | -71.50596 | 29312 ft | 382 kts | 136° |
| 2026-04-26 19:08 | -50.73136 | -71.47429 | 29654 ft | 384 kts | 136° |
| 2026-04-26 19:08 | -50.74880 | -71.44296 | 29983 ft | 386 kts | 136° |
| 2026-04-26 19:09 | -50.76658 | -71.41096 | 30282 ft | 388 kts | 136° |
| 2026-04-26 19:09 | -50.78441 | -71.37884 | 30589 ft | 390 kts | 136° |
| 2026-04-26 19:09 | -50.80235 | -71.34647 | 30874 ft | 392 kts | 136° |
| 2026-04-26 19:09 | -50.82037 | -71.31393 | 31150 ft | 393 kts | 136° |
| 2026-04-26 19:10 | -50.83842 | -71.28129 | 31446 ft | 395 kts | 136° |
| 2026-04-26 19:10 | -50.85654 | -71.24846 | 31713 ft | 396 kts | 136° |
| 2026-04-26 19:10 | -50.87472 | -71.21550 | 31983 ft | 398 kts | 136° |
| 2026-04-26 19:10 | -50.89295 | -71.18241 | 32253 ft | 399 kts | 136° |
| 2026-04-26 19:11 | -50.91126 | -71.14912 | 32512 ft | 401 kts | 136° |
| 2026-04-26 19:11 | -50.92936 | -71.11617 | 32754 ft | 402 kts | 136° |
| 2026-04-26 19:11 | -50.94800 | -71.08219 | 33016 ft | 404 kts | 136° |
| 2026-04-26 19:11 | -50.96624 | -71.04891 | 33243 ft | 406 kts | 136° |
| 2026-04-26 19:12 | -50.98481 | -71.01498 | 33489 ft | 409 kts | 136° |
| 2026-04-26 19:12 | -51.00341 | -70.98001 | 33417 ft | 422 kts | 130° |
| 2026-04-26 19:12 | -51.01742 | -70.93810 | 33330 ft | 441 kts | 111° |
| 2026-04-26 19:12 | -51.02393 | -70.88985 | 33326 ft | 453 kts | 99° |
| 2026-04-26 19:13 | -51.02823 | -70.83966 | 33323 ft | 462 kts | 100° |
| 2026-04-26 19:13 | -51.03680 | -70.73651 | 33382 ft | 478 kts | 99° |
| 2026-04-26 19:14 | -51.04512 | -70.62972 | 33438 ft | 494 kts | 99° |
| 2026-04-26 19:14 | -51.04930 | -70.57558 | 33797 ft | 494 kts | 99° |
| 2026-04-26 19:14 | -51.05549 | -70.52213 | 34145 ft | 489 kts | 111° |
| 2026-04-26 19:14 | -51.06390 | -70.48927 | 34392 ft | 481 kts | 123° |
| 2026-04-26 19:15 | -51.08855 | -70.43165 | 34842 ft | 474 kts | 131° |
| 2026-04-26 19:15 | -51.10824 | -70.38953 | 35156 ft | 474 kts | 132° |
| 2026-04-26 19:15 | -51.12811 | -70.34771 | 35527 ft | 472 kts | 132° |
| 2026-04-26 19:15 | -51.14801 | -70.30623 | 35889 ft | 470 kts | 133° |
| 2026-04-26 19:16 | -51.16789 | -70.26499 | 36241 ft | 469 kts | 133° |
| 2026-04-26 19:16 | -51.18777 | -70.22376 | 36598 ft | 468 kts | 133° |
| 2026-04-26 19:16 | -51.20754 | -70.18270 | 36914 ft | 467 kts | 133° |
| 2026-04-26 19:16 | -51.22732 | -70.14154 | 37233 ft | 466 kts | 133° |
| 2026-04-26 19:17 | -51.24701 | -70.10051 | 37544 ft | 464 kts | 133° |
| 2026-04-26 19:17 | -51.26638 | -70.06009 | 37864 ft | 463 kts | 133° |
| 2026-04-26 19:17 | -51.28590 | -70.01930 | 38267 ft | 460 kts | 133° |
| 2026-04-26 19:17 | -51.30531 | -69.97867 | 38547 ft | 459 kts | 133° |
| 2026-04-26 19:18 | -51.32468 | -69.93805 | 38753 ft | 459 kts | 133° |
| 2026-04-26 19:18 | -51.34406 | -69.89736 | 38934 ft | 459 kts | 133° |
| 2026-04-26 19:18 | -51.36344 | -69.85661 | 39008 ft | 460 kts | 133° |
| 2026-04-26 19:19 | -51.40206 | -69.77520 | 39007 ft | 458 kts | 133° |
| 2026-04-26 19:19 | -51.44054 | -69.69382 | 39003 ft | 458 kts | 133° |
| 2026-04-26 19:20 | -51.47906 | -69.61209 | 39027 ft | 459 kts | 133° |
| 2026-04-26 19:20 | -51.51723 | -69.53087 | 39015 ft | 459 kts | 133° |
| 2026-04-26 19:21 | -51.55566 | -69.44885 | 39021 ft | 459 kts | 133° |
| 2026-04-26 19:21 | -51.59422 | -69.36706 | 38987 ft | 456 kts | 137° |
| 2026-04-26 19:21 | -51.61742 | -69.33357 | 38969 ft | 440 kts | 154° |
| 2026-04-26 19:22 | -51.64416 | -69.31084 | 39009 ft | 434 kts | 160° |
| 2026-04-26 19:22 | -51.69924 | -69.26971 | 38994 ft | 436 kts | 162° |
| 2026-04-26 19:23 | -51.75473 | -69.23028 | 38997 ft | 435 kts | 162° |
| 2026-04-26 19:23 | -51.80997 | -69.19155 | 39002 ft | 436 kts | 162° |
| 2026-04-26 19:24 | -51.86557 | -69.15255 | 39006 ft | 436 kts | 162° |
| 2026-04-26 19:24 | -51.94910 | -69.09377 | 39015 ft | 436 kts | 162° |
| 2026-04-26 19:25 | -51.99538 | -69.06110 | 39010 ft | 436 kts | 162° |
| 2026-04-26 19:25 | -52.06049 | -69.01501 | 39004 ft | 436 kts | 162° |
| 2026-04-26 19:26 | -52.11578 | -68.97577 | 39023 ft | 436 kts | 162° |
| 2026-04-26 19:26 | -52.17144 | -68.93614 | 39005 ft | 437 kts | 162° |
| 2026-04-26 19:27 | -52.22717 | -68.89636 | 38998 ft | 437 kts | 162° |
| 2026-04-26 19:27 | -52.28290 | -68.85647 | 38995 ft | 437 kts | 162° |
| 2026-04-26 19:28 | -52.33865 | -68.81646 | 39011 ft | 437 kts | 162° |
| 2026-04-26 19:28 | -52.39441 | -68.77631 | 38994 ft | 438 kts | 162° |
| 2026-04-26 19:29 | -52.45026 | -68.73600 | 38985 ft | 438 kts | 162° |
| 2026-04-26 19:29 | -52.50608 | -68.69561 | 38980 ft | 438 kts | 162° |
| 2026-04-26 19:30 | -52.56158 | -68.65533 | 39003 ft | 438 kts | 162° |
| 2026-04-26 19:30 | -52.60835 | -68.62130 | 38976 ft | 439 kts | 162° |
| 2026-04-26 19:31 | -52.67328 | -68.57392 | 38972 ft | 439 kts | 162° |
| 2026-04-26 19:31 | -52.72917 | -68.53303 | 38966 ft | 439 kts | 162° |
| 2026-04-26 19:32 | -52.78474 | -68.49227 | 38976 ft | 439 kts | 162° |
| 2026-04-26 19:32 | -52.84070 | -68.45106 | 38962 ft | 440 kts | 162° |
| 2026-04-26 19:33 | -52.89664 | -68.40978 | 38955 ft | 440 kts | 162° |
| 2026-04-26 19:33 | -52.95258 | -68.36838 | 38956 ft | 440 kts | 162° |
| 2026-04-26 19:34 | -53.00819 | -68.32712 | 38945 ft | 440 kts | 162° |
| 2026-04-26 19:34 | -53.06408 | -68.28553 | 38941 ft | 440 kts | 161° |
| 2026-04-26 19:35 | -53.11993 | -68.24384 | 38693 ft | 437 kts | 162° |
| 2026-04-26 19:35 | -53.14788 | -68.22295 | 37532 ft | 444 kts | 162° |
| 2026-04-26 19:35 | -53.17623 | -68.20172 | 36255 ft | 447 kts | 162° |
| 2026-04-26 19:36 | -53.20441 | -68.18058 | 35417 ft | 441 kts | 162° |
| 2026-04-26 19:36 | -53.22283 | -68.16674 | 35027 ft | 433 kts | 162° |
| 2026-04-26 19:36 | -53.25910 | -68.13948 | 34316 ft | 428 kts | 162° |
| 2026-04-26 19:36 | -53.28665 | -68.11872 | 33495 ft | 437 kts | 162° |
| 2026-04-26 19:37 | -53.31450 | -68.09770 | 32582 ft | 441 kts | 162° |
| 2026-04-26 19:37 | -53.34255 | -68.07650 | 31818 ft | 440 kts | 162° |
| 2026-04-26 19:37 | -53.37045 | -68.05540 | 31325 ft | 442 kts | 161° |
| 2026-04-26 19:37 | -53.39860 | -68.03407 | 30834 ft | 446 kts | 161° |
| 2026-04-26 19:38 | -53.42686 | -68.01262 | 30241 ft | 444 kts | 161° |
| 2026-04-26 19:38 | -53.45490 | -67.99132 | 29601 ft | 441 kts | 161° |
| 2026-04-26 19:38 | -53.48235 | -67.97043 | 29020 ft | 437 kts | 161° |
| 2026-04-26 19:38 | -53.50992 | -67.94942 | 28437 ft | 433 kts | 161° |
| 2026-04-26 19:39 | -53.53726 | -67.92856 | 27873 ft | 429 kts | 161° |
| 2026-04-26 19:39 | -53.56432 | -67.90788 | 27318 ft | 426 kts | 161° |
| 2026-04-26 19:39 | -53.59116 | -67.88735 | 26770 ft | 422 kts | 161° |
| 2026-04-26 19:39 | -53.61794 | -67.86682 | 26250 ft | 419 kts | 161° |
| 2026-04-26 19:40 | -53.64408 | -67.84676 | 26069 ft | 408 kts | 161° |
| 2026-04-26 19:40 | -53.66956 | -67.82719 | 25905 ft | 396 kts | 161° |
| 2026-04-26 19:40 | -53.69489 | -67.80772 | 25738 ft | 406 kts | 161° |
| 2026-04-26 19:40 | -53.72057 | -67.78795 | 25571 ft | 415 kts | 161° |
| 2026-04-26 19:41 | -53.74696 | -67.76759 | 25391 ft | 417 kts | 161° |
| 2026-04-26 19:41 | -53.77386 | -67.75007 | 25194 ft | 409 kts | 173° |
| 2026-04-26 19:41 | -53.80177 | -67.74449 | 25023 ft | 402 kts | 181° |
| 2026-04-26 19:41 | -53.81120 | -67.74320 | 24970 ft | 402 kts | 181° |
| 2026-04-26 19:42 | -53.85755 | -67.73733 | 24678 ft | 401 kts | 181° |
| 2026-04-26 19:42 | -53.88534 | -67.73416 | 24483 ft | 400 kts | 181° |
| 2026-04-26 19:42 | -53.91312 | -67.73112 | 24068 ft | 398 kts | 182° |
| 2026-04-26 19:42 | -53.94068 | -67.72816 | 23521 ft | 396 kts | 182° |
| 2026-04-26 19:43 | -53.96787 | -67.72525 | 22926 ft | 395 kts | 182° |
| 2026-04-26 19:43 | -53.99519 | -67.72233 | 22395 ft | 392 kts | 181° |
| 2026-04-26 19:43 | -54.02233 | -67.71943 | 21892 ft | 388 kts | 181° |
| 2026-04-26 19:43 | -54.04927 | -67.71654 | 21398 ft | 385 kts | 181° |
| 2026-04-26 19:44 | -54.07593 | -67.71369 | 20927 ft | 382 kts | 181° |
| 2026-04-26 19:44 | -54.10236 | -67.71086 | 20460 ft | 379 kts | 181° |
| 2026-04-26 19:44 | -54.12863 | -67.70804 | 19990 ft | 377 kts | 181° |
| 2026-04-26 19:44 | -54.15441 | -67.70526 | 19535 ft | 374 kts | 181° |
| 2026-04-26 19:45 | -54.18032 | -67.70248 | 19092 ft | 372 kts | 181° |
| 2026-04-26 19:45 | -54.20617 | -67.69969 | 18650 ft | 370 kts | 181° |
| 2026-04-26 19:45 | -54.23180 | -67.69693 | 18221 ft | 368 kts | 181° |
| 2026-04-26 19:45 | -54.25735 | -67.69416 | 17736 ft | 366 kts | 181° |
| 2026-04-26 19:46 | -54.28274 | -67.69141 | 17279 ft | 364 kts | 181° |
| 2026-04-26 19:46 | -54.30788 | -67.68869 | 16852 ft | 361 kts | 181° |
| 2026-04-26 19:46 | -54.33284 | -67.68598 | 16431 ft | 357 kts | 181° |
| 2026-04-26 19:46 | -54.35755 | -67.68330 | 16020 ft | 354 kts | 181° |
| 2026-04-26 19:47 | -54.38199 | -67.68065 | 15618 ft | 350 kts | 181° |
| 2026-04-26 19:47 | -54.38986 | -67.67978 | 15483 ft | 349 kts | 181° |
| 2026-04-26 19:47 | -54.43024 | -67.67539 | 14816 ft | 345 kts | 181° |
| 2026-04-26 19:47 | -54.45407 | -67.67279 | 14418 ft | 342 kts | 181° |
| 2026-04-26 19:48 | -54.47748 | -67.67024 | 14059 ft | 339 kts | 181° |
| 2026-04-26 19:48 | -54.50076 | -67.66768 | 13868 ft | 331 kts | 181° |
| 2026-04-26 19:48 | -54.52388 | -67.66514 | 13272 ft | 335 kts | 181° |
| 2026-04-26 19:48 | -54.54730 | -67.66258 | 12565 ft | 334 kts | 181° |
| 2026-04-26 19:49 | -54.57024 | -67.66005 | 12006 ft | 326 kts | 181° |
| 2026-04-26 19:49 | -54.59251 | -67.65759 | 11521 ft | 316 kts | 181° |
| 2026-04-26 19:49 | -54.61424 | -67.65519 | 11026 ft | 309 kts | 182° |
| 2026-04-26 19:49 | -54.63542 | -67.65285 | 10527 ft | 302 kts | 182° |
| 2026-04-26 19:50 | -54.64924 | -67.65132 | 10199 ft | 298 kts | 182° |
| 2026-04-26 19:50 | -54.67622 | -67.64829 | 9662 ft | 286 kts | 183° |
| 2026-04-26 19:50 | -54.68943 | -67.64679 | 9458 ft | 278 kts | 183° |
| 2026-04-26 19:50 | -54.71474 | -67.64395 | 9102 ft | 273 kts | 183° |
| 2026-04-26 19:51 | -54.72750 | -67.64250 | 8935 ft | 273 kts | 183° |
| 2026-04-26 19:51 | -54.75279 | -67.63975 | 8599 ft | 277 kts | 183° |
| 2026-04-26 19:51 | -54.76590 | -67.63832 | 8364 ft | 280 kts | 182° |
| 2026-04-26 19:51 | -54.78527 | -67.63776 | 7984 ft | 272 kts | 196° |
| 2026-04-26 19:52 | -54.80152 | -67.65012 | 7724 ft | 244 kts | 222° |
| 2026-04-26 19:52 | -54.81236 | -67.67107 | 7218 ft | 231 kts | 248° |
| 2026-04-26 19:52 | -54.81698 | -67.69613 | 6954 ft | 215 kts | 261° |
| 2026-04-26 19:52 | -54.81953 | -67.72180 | 7029 ft | 216 kts | 263° |
| 2026-04-26 19:53 | -54.82142 | -67.74690 | 6990 ft | 204 kts | 265° |
| 2026-04-26 19:53 | -54.82284 | -67.77097 | 6816 ft | 199 kts | 266° |
| 2026-04-26 19:53 | -54.82402 | -67.79498 | 6519 ft | 200 kts | 267° |
| 2026-04-26 19:53 | -54.82506 | -67.81906 | 6221 ft | 201 kts | 268° |
| 2026-04-26 19:54 | -54.82605 | -67.84298 | 5959 ft | 197 kts | 268° |
| 2026-04-26 19:54 | -54.82699 | -67.86682 | 5595 ft | 199 kts | 268° |
| 2026-04-26 19:54 | -54.82790 | -67.89058 | 5365 ft | 198 kts | 268° |
| 2026-04-26 19:54 | -54.82882 | -67.91452 | 5028 ft | 196 kts | 268° |
| 2026-04-26 19:55 | -54.82970 | -67.93791 | 4735 ft | 194 kts | 268° |
| 2026-04-26 19:55 | -54.83059 | -67.96121 | 4410 ft | 191 kts | 269° |
| 2026-04-26 19:55 | -54.83144 | -67.98373 | 4096 ft | 188 kts | 269° |
| 2026-04-26 19:55 | -54.83228 | -68.00608 | 3795 ft | 184 kts | 269° |
| 2026-04-26 19:56 | -54.83314 | -68.02768 | 3510 ft | 177 kts | 270° |
| 2026-04-26 19:56 | -54.83392 | -68.04880 | 3211 ft | 173 kts | 271° |
| 2026-04-26 19:56 | -54.83469 | -68.06964 | 2939 ft | 174 kts | 271° |
| 2026-04-26 19:56 | -54.83548 | -68.09063 | 2630 ft | 175 kts | 269° |
| 2026-04-26 19:57 | -54.83628 | -68.11201 | 2313 ft | 179 kts | 268° |
| 2026-04-26 19:57 | -54.83712 | -68.13367 | 1988 ft | 180 kts | 267° |
| 2026-04-26 19:57 | -54.83795 | -68.15519 | 1692 ft | 172 kts | 266° |
| 2026-04-26 19:57 | -54.83870 | -68.17479 | 1436 ft | 155 kts | 266° |
| 2026-04-26 19:58 | -54.83937 | -68.19255 | 1219 ft | 143 kts | 267° |
| 2026-04-26 19:58 | -54.84008 | -68.20956 | 980 ft | 141 kts | 268° |
| 2026-04-26 19:58 | -54.84075 | -68.22647 | 733 ft | 140 kts | 270° |
| 2026-04-26 19:58 | -54.84121 | -68.24353 | 487 ft | 142 kts | 268° |
| 2026-04-26 19:59 | -54.84192 | -68.26071 | 313 ft | 144 kts | 267° |
| 2026-04-26 19:59 | -54.84271 | -68.27839 | 114 ft | 148 kts | 266° |
| 2026-04-26 19:59 | -54.84325 | -68.29457 | 91 ft | 110 kts | 266° |
| 2026-04-26 19:59 | -54.84361 | -68.30351 | 83 ft | 46 kts | 266° |
| 2026-04-26 20:00 | -54.84379 | -68.30835 | 119 ft | 22 kts | 266° |
| 2026-04-26 20:00 | -54.84322 | -68.30959 | 90 ft | 3 kts | 356° |
| 2026-04-26 20:00 | -54.84282 | -68.30963 | 88 ft | 8 kts | 356° |
| 2026-04-26 20:00 | -54.84216 | -68.30971 | 88 ft | 11 kts | 355° |
| 2026-04-26 20:01 | -54.84131 | -68.30985 | 88 ft | 14 kts | 354° |
| 2026-04-26 20:01 | -54.84089 | -68.31052 | 87 ft | 6 kts | 265° |
| 2026-04-26 20:01 | -54.84093 | -68.31139 | 85 ft | 9 kts | 267° |
| 2026-04-26 20:01 | -54.84095 | -68.31248 | 87 ft | 8 kts | 275° |
| 2026-04-26 20:02 | -54.84086 | -68.31270 | 87 ft | 1 kts | 335° |
| 2026-04-26 20:02 | -54.84077 | -68.31273 | 87 ft | 2 kts | 353° |
| 2026-04-26 20:02 | -54.84058 | -68.31270 | 87 ft | 3 kts | 11° |
| 2026-04-26 20:02 | -54.84044 | -68.31262 | 87 ft | 4 kts | 19° |
| 2026-04-26 20:03 | -54.84029 | -68.31252 | 88 ft | 0 kts | 19° |